Sawyer International Airport Marquette US
ICAO: KSAW
IATA: SAW
Category: Medium
Scheduled Services: No

Elevation: 1221 ft
TransAlt. 18000 ft.

Airport Communications:
AWOS 3:118.375
MINNEAPOLIS CNTR:119.1
CTAF:119.975
GND:121.65
GREEN BAY RDO:123.6
TWR:119.975
UNICOM:122.7

KSAW Zoom In..

Runways:

(A) RW 01 length 12366 ft width 150 ft
ILS 110.10 / hdg 13

(B) RW 19 length 12366 ft width 150 ft
---- / hdg 193

Location; KSAW
Day. 15 / Time. 21.50 Zulu
* Altimeter: 29.92
* Temperature: 30° c. 86°f.
* Wind from: 220° Speed 09 kn.
Dewpoint: 15° c.
Visibility: 10 Statute Miles.
Clouds: Scattered 7500 ft.

KSAW 152150Z 22009KT 10SM SCT075 30/15 A2992


Wind From 220°
Speed 09 kn.

 
 
jpsmedia.com for Web Design worldairports.se 2018   terms of use